TOP > 外国特許検索

外国特許検索

Display results per page Option
Patent state
Country

Clear

Hits 4748 results

No. Application number
Gazette No
Country
Title
Release Date
Update Date
Information Provider
201 08568105 7498135 アメリカ合衆国 Method for preparing gene expression profile 2009/12/11 2010/08/27 放射線医学総合研究所
202 2008JP072123 WO 2009/072590 世界知的所有権機関(WIPO) BRANCHED POLYALKYLENE GLYCOL DERIVATIVE, PHOTOSENSITIVE COMPOSITION, CROSSLINKED MATERIAL, AND SUBSTRATE 2010/08/31 2010/08/27 東京理科大学
203 2008JP066384 WO 2009/035020 世界知的所有権機関(WIPO) NOVEL DIHYDRONAPHTHALENE COMPOUND AND USE THEREOF 2010/08/31 2010/08/27 東京理科大学
204 2010JP002865 WO 2010/122787 世界知的所有権機関(WIPO) PERITONEUM-PROTECTING AGENT AND METHOD FOR PRODUCING PERITONEUM-PROTECTING AGENT 2010/09/28 2010/12/15 岡山大学
205 2010JP056117 WO 2010/114143 世界知的所有権機関(WIPO) SYSTEM FOR INCREASING ACTIVITY OF SPECIFIC PROMOTER, AND VECTOR CARRYING THE SYSTEM 2010/09/28 2010/12/15 岡山大学
206 2010JP058642 WO 2010/134601 世界知的所有権機関(WIPO) PEPTIDE INDUCING XAGE-1B-SPECIFIC IMMUNE REACTION AND UTILIZATION OF SAME 2010/09/28 2010/12/15 岡山大学
207 2006JP304093 WO 2006/095648 世界知的所有権機関(WIPO) THREE-DIMENSIONAL PHOTONIC CRYSTAL AND METHOD FOR PRODUCING THE SAME 2010/11/25 2010/12/15 京都大学
208 2008JP065042 WO 2009/028424 世界知的所有権機関(WIPO) ELECTRONIC ELEMENT AND ELECTRICAL CONDUCTIVITY CONTROL METHOD 新技術説明会 2010/12/14 2010/12/15 岡山大学
209 2008JP065045 WO 2009/028426 世界知的所有権機関(WIPO) ELECTRONIC ELEMENT AND ELECTROCONDUCTIVITY CONTROL METHOD 新技術説明会 2010/12/14 2010/12/15 岡山大学
210 2008JP065724 WO 2009/031517 世界知的所有権機関(WIPO) SURFACE TREATING METHOD AND DEVICE THEREOF 新技術説明会 2010/12/14 2010/12/15 岡山大学
211 2009JP051034 WO 2009/093675 世界知的所有権機関(WIPO) METHOD AND BACTERIUM FOR PROMOTING THE GROWTH OF RACOMITRIUM CANESCENS AND SEED PLANTS 2010/12/14 2010/12/15 岡山大学
212 2009JP055816 WO 2009/119578 世界知的所有権機関(WIPO) MICRO-DROPLET DISPENSING DEVICE 2010/12/14 2010/12/15 岡山大学
213 2009JP053256 WO 2009/125626 世界知的所有権機関(WIPO) MESOTHELIOMA-SPECIFIC PROMOTER AND USE THEREOF 2010/12/14 2010/12/15 岡山大学
214 2009JP058996 WO 2009/145067 世界知的所有権機関(WIPO) THERAPEUTIC AGENT FOR PAIN AND USE THEREOF 新技術説明会 2010/12/14 2010/12/15 岡山大学
215 2009JP059982 WO 2009/148017 世界知的所有権機関(WIPO) ARTIFICIAL TERMITE EGG HAVING .BETA.-GLUCOSIDASE AS TERMITE EGG RECOGNITION PHEROMONE, AND CONTROL OF TERMITES USING THE SAME 2010/12/14 2010/12/15 岡山大学
216 2009JP061698 WO 2010/001824 世界知的所有権機関(WIPO) NOVEL ANTISCHISTOSOMAL AGENT 2010/12/14 2010/12/15 岡山大学
217 2009JP065264 WO 2010/026966 世界知的所有権機関(WIPO) NOVEL ANTI-HCV AGENT AND USE THEREOF 2010/12/14 2010/12/15 岡山大学
218 2009JP053140 WO 2009/107575 世界知的所有権機関(WIPO) DEVICE FOR NONDESTRUCTIVELY EXAMINING COMPOSITE STRUCTURE AND NONDESTRUCTIVE EXAMINATION METHOD 新技術説明会 2010/12/15 2010/12/15 高エネルギー加速器研究機構
219 2009JP067046 WO 2010/038785 世界知的所有権機関(WIPO) PHOTOSENSOR AND METHOD FOR MANUFACTURING THE PHOTOSENSOR 新技術説明会 2010/12/15 2010/12/15 岡山大学
220 2009JP067047 WO 2010/038786 世界知的所有権機関(WIPO) MEMORY ELEMENT, METHOD FOR MANUFACTURING THE MEMORY ELEMENT, AND MEMORY DEVICE COMPRISING MEMORY ELEMENT 新技術説明会 2010/12/15 2010/12/15 岡山大学
221 2009JP067048 WO 2010/038787 世界知的所有権機関(WIPO) PHOTOELECTRIC CONVERSION ELEMENT AND METHOD FOR MANUFACTURING THE PHOTOELECTRIC CONVERSION ELEMENT 新技術説明会 2010/12/15 2010/12/15 岡山大学
222 2009JP067049 WO 2010/038788 世界知的所有権機関(WIPO) CURRENT CONTROL ELEMENT AND METHOD FOR MANUFACTURING THE CURRENT CONTROL ELEMENT 新技術説明会 2010/12/15 2010/12/15 岡山大学
223 2009JP005235 WO 2010/041449 世界知的所有権機関(WIPO) ANTI-ALLERGIC AGENT COMPRISING RXR AGONIST AS ACTIVE INGREDIENT 2010/12/15 2010/12/15 岡山大学
224 2009JP005718 WO 2010/050211 世界知的所有権機関(WIPO) COMPOSITION FOR LOCAL ANESTHESIA 2010/12/15 2010/12/15 岡山大学
225 2009JP069224 WO 2010/055867 世界知的所有権機関(WIPO) METHOD FOR DETERMINING THERAPEUTIC EFFECT OF REPERFUSION THERAPY 新技術説明会 2010/12/15 2010/12/15 岡山大学
226 2010JP051087 WO 2010/087383 世界知的所有権機関(WIPO) ION SENSOR 2010/12/15 2010/12/15 岡山大学
227 2010JP053626 WO 2010/101240 世界知的所有権機関(WIPO) BIODEGRADABLE POROUS HOLLOW PARTICLE, AND PRODUCTION METHOD AND APPLICATION THEREOF 2010/12/15 2010/12/15 岡山大学
228 2009JP055702 WO 2010/109586 世界知的所有権機関(WIPO) CONCEALMENT-TYPE RADIOTHERAPY/IMAGING COMBINED DEVICE 2010/11/29 2010/12/16 放射線医学総合研究所
229 2009JP055701 WO 2010/109585 世界知的所有権機関(WIPO) DETECTOR-ROTATION-TYPE RADIOTHERAPY/IMAGING COMBINED DEVICE 2010/11/29 2010/12/16 放射線医学総合研究所
230 2009JP053928 WO 2010/100720 世界知的所有権機関(WIPO) REAGENT FOR MEASUREMENT OF CHOLINESTERASE ACTIVITY 2010/11/29 2010/12/16 放射線医学総合研究所
231 2008JP068920 WO 2010/041349 世界知的所有権機関(WIPO) MARKER FOR ESTIMATING THE PROGNOSIS OF CERVICAL ADENOCARCINOMA OR FOR ESTIMATING THE PROGNOSIS OF CERVICAL CANCER 2010/11/29 2010/12/16 放射線医学総合研究所
232 2008JP068279 WO 2010/041313 世界知的所有権機関(WIPO) DOI TYPE RADIATION DETECTOR 2010/11/29 2010/12/16 放射線医学総合研究所
233 2008JP063862 WO 2010/013346 世界知的所有権機関(WIPO) RADIATION THERAPY/PET COMBINED DEVICE 2010/11/29 2010/12/16 放射線医学総合研究所
234 2009JP061662 WO 2009/157526 世界知的所有権機関(WIPO) GAMMA-RAY DETECTOR, RADIATION DIAGNOSTIC DEVICE, TOMOGRAPHIC DEVICE, AND ANALYSIS METHOD THEREFOR 2010/11/29 2010/12/16 放射線医学総合研究所
235 2008JP063861 WO 2010/013345 世界知的所有権機関(WIPO) DETECTOR-SHIFT RADIATION THERAPY/PET COMBINED APPARATUS 2010/11/29 2010/12/16 放射線医学総合研究所
236 2009JP054780 WO 2010/103644 世界知的所有権機関(WIPO) OPEN PET-MRI COMPLEX MACHINE 2010/11/29 2010/12/16 放射線医学総合研究所
237 2009JP066652 WO 2010/041560 世界知的所有権機関(WIPO) QUANTITATIVE EVALUATION METHOD AND DEVICE FOR ZETA POTENTIAL, pH OR TEMPERATURE DISTRIBUTION AT WALL SURFACE, AND QUANTITATIVE VISUALIZATION METHOD AND DEVICE FOR SURFACE MODIFICATION 2010/12/09 2010/12/16 慶應義塾大学
238 2009JP005625 WO 2010/050167 世界知的所有権機関(WIPO) COMPOSITION FOR INDUCING TH2 CELL, THERAPEUTIC COMPOSITION FOR TH2-TYPE DISEASE, AND USE OF SAME 新技術説明会 2010/12/08 2010/12/27 兵庫医科大学
239 2009JP051907 WO 2009/099112 世界知的所有権機関(WIPO) NOVEL DNA FRAGMENT AND USE THEREOF 新技術説明会 2010/12/14 2010/12/27 岡山大学
240 2009JP004465 WO 2010/050109 世界知的所有権機関(WIPO) KIT FOR PRODUCING DOUBLE-STRANDED RNA WITH LACTIC ACID BACTERIUM, AND USE THEREOF 2010/12/15 2010/12/27 岡山大学
241 2010JP059889 WO 2010/143700 世界知的所有権機関(WIPO) DIHYDROXYHEXENOIC ACID ESTER AND METHOD FOR PRODUCING SAME 新技術説明会 2010/09/28 2011/01/19 岡山大学
242 2010JP060002 WO 2010/143734 世界知的所有権機関(WIPO) NITRO GROUP-CONTAINING ETHER COMPOUND AND METHOD FOR PRODUCING SAME 新技術説明会 2010/09/28 2011/01/19 岡山大学
243 2008JP073572 WO 2009/087908 世界知的所有権機関(WIPO) METHOD OF RECYCLING USEFUL METAL 新技術説明会 2011/01/05 2011/01/19 芝浦工業大学
244 2008JP059681 WO 2008/149712 世界知的所有権機関(WIPO) DISTORTION INSPECTING APPARATUS AND DISTORTION INSPECTING METHOD 新技術説明会 2011/01/12 2011/01/19 宮崎大学
245 2008JP002335 WO 2009/028186 世界知的所有権機関(WIPO) ELECTROMAGNETIC FIELD SPACE DISTRIBUTION VISUALIZING DEVICE, ELECTROMAGNETIC FIELD SPACE DISTRIBUTION VISUALIZING METHOD, AND PROGRAM THEREOF 新技術説明会 2011/01/12 2011/01/19 金沢大TLO
246 2009JP003429 WO 2010/013408 世界知的所有権機関(WIPO) RADIO FIELD STRENGTH MEASURING DEVICE AND RADIO FIELD STRENGTH MEASURING SYSTEM 新技術説明会 2011/01/12 2011/01/19 金沢大TLO
247 2008JP061243 WO 2008/156139 世界知的所有権機関(WIPO) PROTEIN ANALYSIS METHOD USING ISOTOPE COMPOUND AS LABEL 新技術説明会 2011/01/13 2011/01/19 福井大学
248 2008JP072942 WO 2009/078423 世界知的所有権機関(WIPO) FUSED TRICYCLIC COMPOUND HAVING ALDOSE REDUCTASE INHIBITORY ACTIVITY 新技術説明会 2011/01/13 2011/01/19 富山大学
249 2008JP055132 WO 2008/114829 世界知的所有権機関(WIPO) ENCRYPTION DEVICE, DECRYPTION DEVICE, ENCRYPTION PROGRAM, DECRYPTION PROGRAM, AND RECORDING MEDIUM 2011/01/13 2011/01/19 東京電機大学
250 2008JP069306 WO 2009/057517 世界知的所有権機関(WIPO) INTERPOLATION PROCESSING METHOD AND INTERPOLATION PROCESSOR 2011/01/17 2011/01/19 横浜国立大学
251 2009JP053252 WO 2009/142037 世界知的所有権機関(WIPO) APPROXIMATION PROCESSING METHOD AND APPROXIMATION PROCESSING DEVICE 2011/01/17 2011/01/19 横浜国立大学
252 2010JP062759 WO 2011/013735 世界知的所有権機関(WIPO) NOVEL FLAVANONE DERIVATIVE 2010/09/28 2011/02/16 岡山大学
253 2008JP001394 WO 2008/149542 世界知的所有権機関(WIPO) METHOD FOR PRODUCTION OF DHA-CONTAINING PHOSPHOLIPID THROUGH MICROBIAL FERMENTATION 新技術説明会 2011/01/20 2011/02/16 北海道大学
254 2010JP001867 WO 2010/106794 世界知的所有権機関(WIPO) SYSTEM FOR ANALYZING EXPRESSION PROFILE AND PROGRAM THEREOF 2011/01/20 2011/02/16 明治大学
255 2007JP067745 WO 2008/041457 世界知的所有権機関(WIPO) MASSAGE ROBOT, CONTROL PROGRAM THEREFOR, AND ROBOT FOR SPECIFYING PORTION OF HUMAN BODY 2011/02/03 2011/02/16 早稲田大学
256 2008JP052509 WO 2008/099915 世界知的所有権機関(WIPO) ROAD/FEATURE MEASURING DEVICE, FEATURE IDENTIFYING DEVICE, ROAD/FEATURE MEASURING METHOD, ROAD/FEATURE MEASURING PROGRAM, MEASURING DEVICE, MEASURING METHOD, MEASURING PROGRAM, MEASURED POSITION DATA, MEASURING TERMINAL, MEASURING SERVER DEVICE, DRAWING DEVICE, DRAWING METHOD, DRAWING PROGRAM, AND DRAWING DATA 2011/02/03 2011/02/16 早稲田大学
257 2005JP002821 WO 2005/079661 世界知的所有権機関(WIPO) APPARENT CHEMICAL SPECIES MEASURING METHOD AND MEASURING SYSTEM 2011/02/03 2011/02/16 早稲田大学
258 2006JP310372 WO 2006/134759 世界知的所有権機関(WIPO) SENTENCE EVALUATING DEVICE AND SENTENCE EVALUATING PROGRAM 2011/02/03 2011/02/16 早稲田大学
259 2009JP051533 WO 2009/096504 世界知的所有権機関(WIPO) MICRO VACUUM GAUGE 2011/02/09 2011/02/16 立命館大学
260 2008JP003523 WO 2009/069313 世界知的所有権機関(WIPO) SYSTEM FOR DELIVERING NUCLEIC ACIDS FOR SUPPRESSING TARGET GENE EXPRESSION BY UTILIZING ENDOGENOUS CHYLOMICRON 2010/11/10 2011/03/18 東京医科歯科大学
261 2010JP063296 WO 2011/016520 世界知的所有権機関(WIPO) ELECTROSTATIC SORTING APPARATUS 2011/03/03 2011/03/18 芝浦工業大学
262 2009JP064053 WO 2010/016587 世界知的所有権機関(WIPO) METHOD FOR EVALUATING SPECIFIC INCORPORATION OF D-GLUCOSE INTO CELLS 2011/03/04 2011/03/18 弘前大学
263 2009JP053157 WO 2010/001632 世界知的所有権機関(WIPO) MICRO-RNA ASSOCIATED WITH RHEUMATOID ARTHRITIS 2011/03/09 2011/03/18 神戸大学
264 2008JP054074 WO 2008/108438 世界知的所有権機関(WIPO) SILANE COUPLING AGENTS WITH HEAT RESISTANCE, DURABILITY, RELEASABILITY, AND ANTIFOULING PROPERTY AND PROCESS FOR PRODUCING THESE COMPOUNDS 2011/03/14 2011/03/18 東京理科大学
265 2010JP062351 WO 2011/010695 世界知的所有権機関(WIPO) METHOD FOR INCREASING YIELD OF STAPLE FOOD CROP 2011/03/18 2011/03/18 静岡大学
266 2008JP068114 WO 2009/044902 世界知的所有権機関(WIPO) DIELECTROPHORESIS DEVICE AND METHOD 2009/12/04 2011/03/22 九州工業大学
267 2010JP053374 WO 2010/098492 世界知的所有権機関(WIPO) ACTIVATED METAL SALT FLOCCULANT AND PROCESS FOR PRODUCING SAME 実績あり 2011/03/01 2011/03/22 山口TLO
268 2007JP056839 WO 2007/114238 世界知的所有権機関(WIPO) APPARATUS FOR DETERMINING BRAIN ATROPHY, METHOD OF DETERMINING BRAIN ATROPHY AND PROGRAM FOR DETERMINING BRAIN ATROPHY 2011/03/04 2011/03/22 浜松医科大学
269 2007JP000409 WO 2007/122814 世界知的所有権機関(WIPO) MULTIWELL INCUBATION APPARATUS AND METHOD OF ANALYSIS USING THE SAME 2011/03/04 2011/03/22 情報・システム研究機構 国立遺伝学研究所
270 2006JP325084 WO 2007/069736 世界知的所有権機関(WIPO) METHOD OF EVALUATING TREE BODY PRODUCTION POWER, IMAGING DEVICE FOR EVALUATING TREE BODY PRODUCTION POWER AND PROGRAM FOR EVALUATING TREE BODY PRODUCTION POWER 新技術説明会 2011/03/04 2011/03/22 山口TLO
271 2006JP300806 WO 2006/090538 世界知的所有権機関(WIPO) SYSTEM STABILITY CONTROL METHOD AND SYSTEM FOR ELECTRIC POWER SYSTEM 新技術説明会 実績あり 2011/03/07 2011/03/22 九州工業大学
272 2007JP061173 WO 2007/142133 世界知的所有権機関(WIPO) DISCHARGE PREVENTION DEVICE 2011/03/07 2011/03/22 九州工業大学
273 2008JP051318 WO 2008/120488 世界知的所有権機関(WIPO) ELECTRONIC CIRCUIT DEVICE 実績あり 2011/03/07 2011/03/22 九州工業大学
274 2008JP054308 WO 2008/126548 世界知的所有権機関(WIPO) METHOD FOR EVALUATING SRAM MEMORY CELL AND MEDIUM RECORDING EVALUATION PROGRAM OF SRAM MEMORY CELL COMPUTER READABLY 実績あり 2011/03/07 2011/03/22 九州工業大学
275 2005JP012541 WO 2006/016455 世界知的所有権機関(WIPO) EUROPIUM DIKETONE CHELATE COMPOUND AND FLUORESCENT MATERIAL USING SAME 実績あり 2011/03/08 2011/03/22 九州工業大学
276 2005JP014811 WO 2006/019043 世界知的所有権機関(WIPO) POROUS SHEET MEMBER FOR CELL CULTURE AND, UTILIZING THE SAME, BIOREACTOR AND CULTURING METHOD 2011/03/08 2011/03/22 九州工業大学
277 2007JP053155 WO 2008/029521 世界知的所有権機関(WIPO) THERMOACOUSTIC DEVICE 2011/03/10 2011/03/22 同志社大学
278 2007JP065086 WO 2008/026414 世界知的所有権機関(WIPO) IMAGE RECOGNITION METHOD, IMAGE RECOGNITION DEVICE, AND IMAGE RECOGNITION PROGRAM 新技術説明会 2011/03/14 2011/03/22 大阪府立大学
279 2007JP073761 WO 2008/069341 世界知的所有権機関(WIPO) SHIP BUOYANCY CONTROL SYSTEM 2011/03/14 2011/03/22 横浜国立大学
280 2008JP054918 WO 2008/120570 世界知的所有権機関(WIPO) CULTURE MEDIUM FOR PRODUCTION OF PROTEIN OR PROLIFERATION OF VIRUS 2011/03/14 2011/03/22 岡山大学
281 2008JP055286 WO 2008/117753 世界知的所有権機関(WIPO) METHOD FOR IMAGING BLOOD VESSEL, SYSTEM FOR IMAGING BLOOD VESSEL AND PROGRAM FOR IMAGING BLOOD VESSEL 2011/03/14 2011/03/22 岐阜大学
282 2008JP051899 WO 2008/093881 世界知的所有権機関(WIPO) METHOD FOR SYNTHESIS OF NITROXYL RADICAL 2011/03/14 2011/03/22 九州大学
283 2008JP056826 WO 2008/123614 世界知的所有権機関(WIPO) METHOD FOR PRODUCTION OF THREE-DIMENSIONAL STRUCTURE OF CELLS 2011/03/14 2011/03/22 九州大学
284 2007JP065720 WO 2008/023582 世界知的所有権機関(WIPO) DEPSIPEPTIDE CONTAINING LACTIC ACID RESIDUE 新技術説明会 2011/03/14 2011/03/22 群馬大学
285 2007JP068970 WO 2008/038766 世界知的所有権機関(WIPO) FUNCTIONAL PEPTIDE HAVING ACTIVITY OF STIMULATING IMMUNE CELL 新技術説明会 2011/03/14 2011/03/22 群馬大学
286 2008JP055650 WO 2008/117813 世界知的所有権機関(WIPO) CHICKEN EMBRYONIC STEM CELL AND METHOD FOR EVALUATION THEREOF 2011/03/14 2011/03/22 広島大学
287 2009JP065263 WO 2010/026965 世界知的所有権機関(WIPO) CELL CAPABLE OF REPLICATING NOVEL HCV REPLICON, CELL CAPABLE OF REPLICATING FULL-LENGTH HCV RNA, AND USE OF THOSE CELLS 2011/03/17 2011/03/22 岡山大学
288 2009JP056758 WO 2009/123243 世界知的所有権機関(WIPO) PLASMA GENERATING DEVICE AND METHOD 新技術説明会 2011/03/17 2011/03/22 琉球大学
289 2010JP053624 WO 2010/101239 世界知的所有権機関(WIPO) SOLAR LIGHT (HEAT) ABSORBING MATERIAL, AND HEAT ABSORBER/STORAGE MATERIAL AND SOLAR LIGHT (HEAT) ABSORBER/CONTROL MATERIAL EACH COMPRISING THE SOLAR LIGHT (HEAT) ABSORBING MATERIAL 2011/03/17 2011/03/22 琉球大学
290 2005215316 2005215316 オーストラリア Apparent chemical species measuring method and measuring system 2011/02/03 2011/03/23 早稲田大学
291 2007JP054100 WO 2007/113964 世界知的所有権機関(WIPO) MULTI-STAGE LOGIC RECONFIGURATION DEVICE AND RECONFIGURATION METHOD, LOGIC CIRCUIT CORRECTION DEVICE, AND RECONFIGURABLE MULTI-STAGE LOGIC CIRCUIT 実績あり 2011/03/08 2011/03/23 九州工業大学
292 2007JP056497 WO 2007/119539 世界知的所有権機関(WIPO) ADDRESS GENERATOR 実績あり 2011/03/08 2011/03/23 九州工業大学
293 2007JP056498 WO 2007/119540 世界知的所有権機関(WIPO) ASSOCIATED MEMORY 実績あり 2011/03/08 2011/03/24 九州工業大学
294 2007JP065085 WO 2008/026413 世界知的所有権機関(WIPO) RECONFIGURATION CONTROLLER FOR OPTICALLY RECONFIGURABLE GATE ARRAY AND ITS METHOD 実績あり 2011/03/08 2011/03/24 九州工業大学
295 2009JP000639 WO 2009/125535 世界知的所有権機関(WIPO) NEEDLE PROBE FOR COOLING OPERATION AND COOLING OPERATION SYSTEM 実績あり 2011/03/08 2011/03/24 九州工業大学
296 2009JP060237 WO 2009/157284 世界知的所有権機関(WIPO) ORGANIC FIELD EFFECT TRANSISTOR 2011/03/08 2011/03/24 九州工業大学
297 2006JP320435 WO 2007/063647 世界知的所有権機関(WIPO) PARTIAL DISCHARGE CHARGE QUANTITY MEASURING METHOD AND DEVICE 実績あり 2011/03/09 2011/03/24 九州工業大学
298 2005JP015277 WO 2006/030608 世界知的所有権機関(WIPO) TERAHERTZ ELECTROMAGNETIC WAVE RADIATION ELEMENT AND ITS MANUFACTURING METHOD 実績あり 2011/03/09 2011/03/24 九州工業大学
299 2005JP022577 WO 2006/067974 世界知的所有権機関(WIPO) NON-CONTACT CONVEY DEVICE BY SUPERCONDUCTING MAGNETIC LEVITATION 新技術説明会 2011/03/09 2011/03/24 九州工業大学
300 2006JP304961 WO 2006/103910 世界知的所有権機関(WIPO) NONDESTRUCTIVE INSPECTION METHOD AND DEVICE 新技術説明会 2011/03/10 2011/03/24 九州工業大学

(3/48 page)

PAGE TOP